Terminal Aerodrome Forecast
Issued by NWS

Home | Current Version | Previous Version | Text Only | Print | Product List | Glossary On
Versions: 1 2 3 4 5 6 7 8 9 10 11 12 13 14 15
000
FTUS43 KLSX 270520
TAFUIN
TAF
KUIN 270520Z 2706/2806 12004KT P6SM FEW150
     FM271500 16006KT P6SM FEW045=

USA.gov is the U.S. government's official web portal to all federal, state and local government web resources and services.